Time;durP1;ratioP1;P1;durP2;ratioP2;P2;SDS_P1;SDS_P2;PMS_P1;PMS_P2;Temp;Humidity;BMP_temperature;BMP_pressure;BME280_temperature;BME280_humidity;BME280_pressure;Samples;Min_cycle;Max_cycle;Signal;HPM_P1;HPM_P2
2022/03/21 00:01:10;;;;;;;14.38;7.70;;;;;;;3.79;42.13;102991.69;5045965;28;20047;-66
2022/03/21 00:03:35;;;;;;;21.60;10.10;;;;;;;3.56;42.60;102992.84;5045838;28;20080;-66
2022/03/21 00:06:01;;;;;;;22.88;11.98;;;;;;;3.52;42.81;102996.88;5045923;28;20029;-66
2022/03/21 00:08:27;;;;;;;23.23;13.10;;;;;;;3.43;42.79;102979.22;5045893;28;20033;-67
2022/03/21 00:10:54;;;;;;;27.63;13.38;;;;;;;3.52;42.52;102981.47;5045698;28;20516;-66
2022/03/21 00:13:20;;;;;;;25.02;13.30;;;;;;;3.32;43.19;102972.53;5045425;28;20029;-66
2022/03/21 00:15:47;;;;;;;11.90;6.65;;;;;;;3.46;42.95;102970.81;5045591;28;20059;-67
2022/03/21 00:18:13;;;;;;;20.08;9.68;;;;;;;3.39;43.25;102960.94;5045393;28;20036;-67
2022/03/21 00:20:40;;;;;;;12.48;5.82;;;;;;;3.42;43.06;102964.59;5045420;28;20025;-67
2022/03/21 00:23:05;;;;;;;20.08;10.55;;;;;;;3.37;43.00;102971.09;5045465;28;20036;-66
2022/03/21 00:25:31;;;;;;;18.08;10.48;;;;;;;3.39;42.78;102955.78;5045002;28;20108;-66
2022/03/21 00:27:56;;;;;;;11.10;5.35;;;;;;;3.49;42.66;102960.72;5045021;28;20036;-67
2022/03/21 00:30:22;;;;;;;19.40;6.78;;;;;;;3.33;42.94;102948.59;5044537;28;20018;-66
2022/03/21 00:32:48;;;;;;;15.27;5.57;;;;;;;3.49;42.73;102957.25;5045090;28;20077;-67
2022/03/21 00:35:15;;;;;;;10.43;5.97;;;;;;;3.41;42.77;102952.56;5045076;28;20055;-66
2022/03/21 00:37:41;;;;;;;21.90;12.18;;;;;;;3.53;42.28;102956.69;5045072;28;20096;-66
2022/03/21 00:40:07;;;;;;;10.38;6.97;;;;;;;3.45;42.73;102959.63;5044869;28;20552;-67
2022/03/21 00:42:37;;;;;;;12.70;7.80;;;;;;;3.26;42.92;102946.47;5044693;28;20477;-67
2022/03/21 00:45:05;;;;;;;15.95;8.15;;;;;;;3.11;43.44;102942.13;5027094;28;20033;-66
2022/03/21 00:47:31;;;;;;;21.73;8.88;;;;;;;3.24;43.07;102948.03;5044559;28;20024;-66
2022/03/21 00:49:57;;;;;;;25.45;12.00;;;;;;;3.17;43.03;102942.50;5044744;28;20029;-67
2022/03/21 00:52:22;;;;;;;12.75;6.03;;;;;;;3.29;42.87;102946.66;5044921;28;20036;-66
2022/03/21 00:54:47;;;;;;;23.27;11.32;;;;;;;2.96;43.62;102939.44;5044638;28;20022;-66
2022/03/21 00:57:13;;;;;;;17.88;7.72;;;;;;;3.12;43.41;102949.03;5044800;28;20025;-66
2022/03/21 00:59:38;;;;;;;22.70;12.55;;;;;;;3.31;42.97;102937.34;5044582;28;20464;-66
2022/03/21 01:02:04;;;;;;;19.60;12.02;;;;;;;3.20;43.21;102934.09;5044471;28;20029;-65
2022/03/21 01:04:29;;;;;;;13.18;8.40;;;;;;;3.39;42.87;102937.81;5044671;28;20040;-66
2022/03/21 01:06:54;;;;;;;11.32;6.20;;;;;;;3.25;43.29;102926.69;5044237;28;20029;-66
2022/03/21 01:09:20;;;;;;;22.40;11.02;;;;;;;3.12;43.45;102927.59;5044333;28;20366;-66
2022/03/21 01:11:46;;;;;;;20.10;12.70;;;;;;;3.41;42.88;102926.88;5044460;28;20025;-66
2022/03/21 01:14:12;;;;;;;20.88;11.27;;;;;;;3.20;43.38;102923.84;5044404;28;20025;-65
2022/03/21 01:16:37;;;;;;;12.07;7.55;;;;;;;3.20;43.41;102924.72;5044196;28;20021;-66
2022/03/21 01:19:04;;;;;;;16.95;9.38;;;;;;;3.01;43.77;102920.13;5044267;28;20025;-66
2022/03/21 01:21:30;;;;;;;15.82;9.52;;;;;;;3.03;43.82;102917.63;5026318;28;20017;-66
2022/03/21 01:23:55;;;;;;;18.58;11.13;;;;;;;2.83;44.27;102914.69;5026685;28;20033;-68
2022/03/21 01:26:22;;;;;;;12.73;6.97;;;;;;;3.13;43.79;102909.72;5044379;28;20021;-67
2022/03/21 01:28:47;;;;;;;18.65;11.10;;;;;;;3.00;44.07;102914.88;5043818;28;20032;-67
2022/03/21 01:31:13;;;;;;;20.17;10.75;;;;;;;2.90;44.34;102906.59;5044266;28;20052;-66
2022/03/21 01:33:40;;;;;;;15.23;7.60;;;;;;;3.09;43.79;102905.19;5044101;28;20060;-66
2022/03/21 01:36:07;;;;;;;21.27;12.25;;;;;;;2.88;44.39;102899.56;5044235;28;20036;-65
2022/03/21 01:38:32;;;;;;;15.90;9.05;;;;;;;2.90;44.35;102903.13;5043731;28;20045;-66
2022/03/21 01:40:57;;;;;;;18.05;9.77;;;;;;;2.75;44.65;102887.66;5043941;28;20036;-67
2022/03/21 01:43:23;;;;;;;17.20;10.57;;;;;;;2.83;44.65;102884.78;5042753;28;20025;-67
2022/03/21 01:45:48;;;;;;;20.60;10.60;;;;;;;2.75;44.79;102883.41;5043860;28;20060;-66
2022/03/21 01:48:14;;;;;;;11.38;6.43;;;;;;;3.16;44.14;102889.41;5043546;28;20024;-66
2022/03/21 01:50:41;;;;;;;9.57;5.03;;;;;;;3.16;43.73;102885.94;5043770;28;20081;-66
2022/03/21 01:55:51;;;;;;;15.63;6.97;;;;;;;3.00;44.42;102897.81;5043920;28;20075;-66
2022/03/21 01:58:17;;;;;;;19.38;9.57;;;;;;;2.82;44.75;102882.13;5043412;28;20124;-66
2022/03/21 02:00:44;;;;;;;11.95;6.32;;;;;;;2.87;44.96;102884.97;5043549;28;20075;-67
2022/03/21 02:03:09;;;;;;;19.17;8.75;;;;;;;2.79;45.00;102874.22;5043760;28;20084;-66
2022/03/21 02:05:37;;;;;;;21.83;12.35;;;;;;;2.58;45.64;102880.66;5043502;28;20030;-67
2022/03/21 02:08:03;;;;;;;17.90;9.52;;;;;;;2.64;45.42;102871.56;5043196;28;20029;-66
2022/03/21 02:10:30;;;;;;;19.92;12.48;;;;;;;2.56;45.56;102868.50;5043475;28;20071;-66
2022/03/21 02:12:56;;;;;;;14.02;7.22;;;;;;;2.53;45.99;102873.44;5043141;28;20021;-66
2022/03/21 02:15:21;;;;;;;13.05;7.25;;;;;;;2.54;45.66;102850.44;5043003;28;20029;-66
2022/03/21 02:17:48;;;;;;;11.70;6.93;;;;;;;2.81;45.49;102870.09;5043176;28;20249;-66
2022/03/21 02:20:20;;;;;;;12.43;8.85;;;;;;;2.47;46.13;102864.56;5043301;28;20107;-66
2022/03/21 02:22:59;;;;;;;12.43;6.75;;;;;;;2.63;45.94;102868.13;5043391;28;20026;-66
2022/03/21 02:25:32;;;;;;;22.45;12.57;;;;;;;2.48;46.24;102860.31;5043794;28;20036;-65
2022/03/21 02:28:22;;;;;;;21.00;10.73;;;;;;;2.59;46.03;102863.56;5043000;28;20022;-66
2022/03/21 02:30:49;;;;;;;23.27;11.73;;;;;;;2.39;46.53;102857.16;5042748;28;20041;-65
2022/03/21 02:33:18;;;;;;;18.42;8.65;;;;;;;2.48;46.37;102848.41;5043070;28;20132;-66
2022/03/21 02:35:46;;;;;;;16.15;9.02;;;;;;;2.59;46.12;102849.09;5043097;28;20304;-65
2022/03/21 02:38:12;;;;;;;19.73;10.63;;;;;;;2.44;46.45;102855.78;5042569;28;20048;-65
2022/03/21 02:40:37;;;;;;;8.40;5.45;;;;;;;2.51;46.45;102842.56;5043137;28;20025;-66
2022/03/21 02:43:03;;;;;;;15.68;9.75;;;;;;;2.30;46.62;102845.50;5042818;28;20021;-65
2022/03/21 02:45:28;;;;;;;13.18;7.75;;;;;;;2.47;46.66;102848.28;5042878;28;20029;-67
2022/03/21 02:47:53;;;;;;;10.93;5.35;;;;;;;2.24;46.99;102827.16;5042792;28;20022;-66
2022/03/21 02:50:39;;;;;;;12.18;7.05;;;;;;;2.52;46.85;102836.66;5042857;28;20032;-67
2022/03/21 02:53:07;;;;;;;21.10;11.27;;;;;;;2.28;47.25;102838.53;5042901;28;20104;-66
2022/03/21 02:55:33;;;;;;;14.93;9.27;;;;;;;2.20;47.67;102836.34;5046748;28;20021;-69
2022/03/21 02:57:58;;;;;;;16.70;9.02;;;;;;;2.07;48.04;102837.22;5046874;28;20028;-67
2022/03/21 03:00:23;;;;;;;20.02;11.10;;;;;;;2.20;47.65;102827.78;5029014;28;20103;-65
2022/03/21 03:02:49;;;;;;;11.35;5.10;;;;;;;2.19;47.93;102831.13;5046775;28;20032;-66
2022/03/21 03:05:14;;;;;;;24.05;13.20;;;;;;;2.01;48.41;102826.56;5046809;28;20036;-66
2022/03/21 03:07:39;;;;;;;15.52;9.00;;;;;;;1.90;48.62;102832.66;5046495;28;20470;-66
2022/03/21 03:10:05;;;;;;;13.02;5.65;;;;;;;2.07;48.42;102816.72;5046979;28;20076;-66
2022/03/21 03:12:31;;;;;;;23.83;12.32;;;;;;;2.08;48.19;102818.47;5046799;28;20030;-66
2022/03/21 03:14:56;;;;;;;21.25;11.00;;;;;;;1.89;48.90;102825.72;5046737;28;20025;-66
2022/03/21 03:17:22;;;;;;;21.80;10.48;;;;;;;2.06;48.48;102817.47;5046391;28;20026;-67
2022/03/21 03:19:47;;;;;;;16.90;11.10;;;;;;;2.05;48.60;102812.25;5046253;28;20033;-66
2022/03/21 03:22:13;;;;;;;13.20;7.65;;;;;;;2.27;48.20;102819.69;5046657;28;20047;-67
2022/03/21 03:24:40;;;;;;;23.20;11.63;;;;;;;1.98;48.71;102811.84;5046605;28;20048;-67
2022/03/21 03:27:05;;;;;;;17.15;10.23;;;;;;;2.05;48.79;102815.72;5046438;28;20026;-66
2022/03/21 03:29:31;;;;;;;15.75;8.88;;;;;;;1.93;49.09;102813.22;5046330;28;20051;-67
2022/03/21 03:32:00;;;;;;;15.35;9.40;;;;;;;1.93;49.33;102807.22;5046398;28;20026;-66
2022/03/21 03:34:26;;;;;;;22.98;13.55;;;;;;;1.93;49.32;102815.78;5028383;28;20040;-67
2022/03/21 03:36:51;;;;;;;20.45;12.02;;;;;;;1.93;49.38;102807.22;5046327;28;20029;-67
2022/03/21 03:39:17;;;;;;;22.92;11.50;;;;;;;1.85;49.62;102819.53;5045984;28;20119;-66
2022/03/21 03:41:42;;;;;;;14.68;9.02;;;;;;;1.98;49.31;102806.72;5046040;28;20028;-68
2022/03/21 03:44:07;;;;;;;15.48;7.93;;;;;;;1.83;49.93;102816.88;5045883;28;20022;-67
2022/03/21 03:46:33;;;;;;;17.08;9.25;;;;;;;1.86;49.70;102813.59;5046312;28;20021;-67
2022/03/21 03:48:58;;;;;;;23.08;10.85;;;;;;;2.06;49.58;102816.63;5045917;28;20477;-67
2022/03/21 03:51:24;;;;;;;14.38;6.68;;;;;;;1.87;50.26;102811.94;5045969;28;20060;-67
2022/03/21 03:53:49;;;;;;;18.63;9.80;;;;;;;1.76;50.14;102812.09;5046047;28;20101;-67
2022/03/21 03:56:14;;;;;;;26.38;14.18;;;;;;;1.51;50.70;102807.91;5046014;28;20120;-67
2022/03/21 03:58:40;;;;;;;12.48;7.65;;;;;;;1.70;51.05;102819.38;5045417;28;20022;-67
2022/03/21 04:01:06;;;;;;;14.85;7.18;;;;;;;1.72;51.05;102813.59;5045822;28;20029;-67
2022/03/21 04:03:47;;;;;;;27.02;13.88;;;;;;;1.91;50.56;102821.59;5045674;28;20090;-68
2022/03/21 04:06:14;;;;;;;21.17;9.80;;;;;;;1.60;51.54;102813.63;5044829;28;20029;-67
2022/03/21 04:08:39;;;;;;;12.77;7.63;;;;;;;1.63;51.25;102791.59;5045570;28;20267;-68
2022/03/21 04:11:05;;;;;;;14.13;6.30;;;;;;;1.80;51.49;102806.41;5045655;28;20026;-68
2022/03/21 04:13:30;;;;;;;22.88;9.98;;;;;;;1.44;52.02;102796.34;5027499;28;20527;-68
2022/03/21 04:15:57;;;;;;;25.48;13.27;;;;;;;1.45;52.30;102822.84;5045440;28;20113;-67
2022/03/21 04:18:23;;;;;;;22.17;11.18;;;;;;;1.46;52.10;102828.06;5045186;28;20481;-67
2022/03/21 04:20:50;;;;;;;12.65;5.75;;;;;;;1.79;51.63;102820.00;5045641;28;20080;-68
2022/03/21 04:23:17;;;;;;;14.13;8.00;;;;;;;1.45;52.38;102807.47;5045283;28;20049;-68
2022/03/21 04:25:42;;;;;;;17.27;10.88;;;;;;;1.54;52.23;102820.00;5045339;28;20029;-67
2022/03/21 04:28:09;;;;;;;10.40;5.70;;;;;;;1.72;52.09;102823.84;5045167;28;20017;-67
2022/03/21 04:30:36;;;;;;;18.17;9.15;;;;;;;1.50;52.41;102818.03;5045350;28;20029;-67
2022/03/21 04:33:01;;;;;;;19.58;9.60;;;;;;;1.44;52.63;102816.81;5045217;28;20029;-67
2022/03/21 04:35:27;;;;;;;16.52;6.78;;;;;;;1.35;52.98;102822.22;5045185;28;20033;-66
2022/03/21 04:37:52;;;;;;;15.27;7.30;;;;;;;1.18;53.37;102792.88;5044499;28;20529;-66
2022/03/21 04:40:18;;;;;;;15.63;7.57;;;;;;;1.52;52.79;102821.59;5045138;28;20032;-67
2022/03/21 04:42:43;;;;;;;24.55;12.45;;;;;;;1.50;52.72;102823.16;5010293;28;20022;-66
2022/03/21 04:45:09;;;;;;;13.82;7.50;;;;;;;1.33;53.26;102822.88;5045165;28;20024;-65
2022/03/21 04:47:34;;;;;;;16.88;8.98;;;;;;;1.21;53.55;102818.72;5045082;28;20493;-67
2022/03/21 04:50:00;;;;;;;23.23;10.63;;;;;;;1.22;53.31;102805.13;5044561;28;20048;-67
2022/03/21 04:52:26;;;;;;;19.33;8.60;;;;;;;1.24;53.58;102815.47;5044938;28;20040;-67
2022/03/21 04:54:51;;;;;;;18.90;8.73;;;;;;;1.50;53.48;102823.16;5044710;28;20021;-67
2022/03/21 04:57:21;;;;;;;23.40;13.07;;;;;;;1.58;52.78;102822.00;5044647;28;20018;-67
2022/03/21 04:59:46;;;;;;;14.93;7.35;;;;;;;1.19;53.66;102794.66;5044579;28;20044;-68
2022/03/21 05:02:11;;;;;;;17.30;7.90;;;;;;;1.30;53.75;102817.53;5044529;28;20331;-67
2022/03/21 05:04:37;;;;;;;13.80;7.97;;;;;;;1.32;53.49;102786.16;5044457;28;20107;-68
2022/03/21 05:07:03;;;;;;;12.07;7.25;;;;;;;1.40;53.88;102821.63;5044451;28;20037;-70
2022/03/21 05:09:28;;;;;;;8.50;5.82;;;;;;;1.58;53.39;102819.44;5044328;28;20028;-69
2022/03/21 05:11:53;;;;;;;12.90;6.10;;;;;;;1.40;53.90;102817.41;5044525;28;20025;-68
2022/03/21 05:14:19;;;;;;;16.55;9.35;;;;;;;1.54;53.67;102804.66;5043972;28;20459;-68
2022/03/21 05:16:48;;;;;;;18.35;8.73;;;;;;;1.43;53.79;102821.84;5044260;28;20095;-67
2022/03/21 05:19:14;;;;;;;19.48;8.30;;;;;;;1.24;54.30;102818.03;5026316;28;20068;-69
2022/03/21 05:21:40;;;;;;;11.77;6.95;;;;;;;1.29;54.03;102805.53;5044288;28;20025;-68
2022/03/21 05:32:21;;;;;;;12.60;5.97;;;;;;;1.73;53.14;102804.22;5044183;28;20033;-63
2022/03/21 05:37:31;;;;;;;13.30;7.93;;;;;;;1.73;53.58;102810.22;5043972;28;20109;-66
2022/03/21 05:42:40;;;;;;;17.20;8.98;;;;;;;2.00;53.01;102816.22;5044089;28;20064;-64
2022/03/21 05:45:06;;;;;;;22.92;11.25;;;;;;;1.84;53.58;102810.03;5044153;28;20029;-64
2022/03/21 05:48:50;;;;;;;15.52;5.95;;;;;;;1.98;53.07;102798.19;5043998;28;20022;-66
2022/03/21 05:50:17;;;;;;;11.55;6.30;;;;;;;2.16;53.02;102818.09;5043555;28;20047;-64
2022/03/21 05:52:42;;;;;;;15.82;8.07;;;;;;;2.52;52.04;102825.50;5044060;28;20021;-65
2022/03/21 05:55:08;;;;;;;10.68;6.60;;;;;;;2.59;51.64;102808.03;5044199;28;20022;-65
2022/03/21 05:57:34;;;;;;;14.65;8.20;;;;;;;2.57;51.61;102804.47;5043629;28;20397;-65
2022/03/21 06:02:43;;;;;;;19.73;12.45;;;;;;;2.65;51.51;102822.06;5043919;28;20032;-64
2022/03/21 06:05:10;;;;;;;21.92;9.32;;;;;;;2.87;50.93;102823.41;5043718;28;20030;-65
2022/03/21 06:07:35;;;;;;;19.35;7.95;;;;;;;3.04;50.99;102820.22;5043646;28;20110;-64
2022/03/21 06:10:01;;;;;;;18.65;8.48;;;;;;;3.25;50.35;102818.84;5043441;28;20053;-65
2022/03/21 06:12:26;;;;;;;12.93;7.38;;;;;;;3.21;50.00;102816.09;5043663;28;20461;-65
2022/03/21 06:14:51;;;;;;;12.25;6.65;;;;;;;3.13;50.55;102822.44;5043394;28;20093;-64
2022/03/21 06:17:17;;;;;;;16.38;8.57;;;;;;;3.55;49.17;102814.69;5043322;28;20013;-65
2022/03/21 06:19:42;;;;;;;11.65;7.22;;;;;;;3.41;49.52;102819.00;5043531;28;20025;-64
2022/03/21 06:22:07;;;;;;;13.43;6.97;;;;;;;3.38;49.75;102793.16;5043399;28;20026;-65
2022/03/21 06:24:33;;;;;;;15.25;6.40;;;;;;;3.57;49.25;102817.34;5043240;28;20108;-65
2022/03/21 06:26:58;;;;;;;22.42;12.93;;;;;;;3.49;49.61;102809.19;5043529;28;20089;-64
2022/03/21 06:29:23;;;;;;;21.45;11.93;;;;;;;3.68;49.20;102807.72;5042935;28;20269;-64
2022/03/21 06:31:49;;;;;;;10.90;6.57;;;;;;;3.75;48.92;102780.69;5043153;28;20429;-67
2022/03/21 06:34:14;;;;;;;21.48;10.25;;;;;;;3.89;48.48;102809.75;5043221;28;20025;-64
2022/03/21 06:36:39;;;;;;;11.88;7.18;;;;;;;4.08;48.19;102816.84;5025642;28;20021;-65
2022/03/21 06:39:05;;;;;;;16.15;8.65;;;;;;;4.35;46.90;102814.09;5043114;28;20042;-65
2022/03/21 06:41:30;;;;;;;12.50;6.32;;;;;;;4.46;46.51;102800.16;5043295;28;20025;-65
2022/03/21 06:43:56;;;;;;;13.35;5.60;;;;;;;4.57;46.01;102794.69;5043151;28;20025;-65
2022/03/21 06:46:21;;;;;;;10.70;6.97;;;;;;;4.48;46.44;102802.81;5043236;28;20029;-65
2022/03/21 06:48:46;;;;;;;9.65;5.55;;;;;;;4.80;45.67;102805.38;5042895;28;20494;-67
2022/03/21 06:51:12;;;;;;;16.05;11.25;;;;;;;4.57;46.67;102789.56;5043029;28;20052;-67
2022/03/21 06:53:37;;;;;;;9.48;6.95;;;;;;;5.23;44.25;102813.63;5042980;28;20049;-65
2022/03/21 06:56:03;;;;;;;11.85;6.82;;;;;;;5.16;43.90;102802.13;5042574;28;20032;-66
2022/03/21 06:58:28;;;;;;;11.00;5.72;;;;;;;5.03;44.50;102795.44;5042332;28;20026;-67
2022/03/21 07:00:54;;;;;;;14.20;7.40;;;;;;;5.12;44.28;102805.31;5042926;28;20030;-64
2022/03/21 07:03:19;;;;;;;12.65;7.10;;;;;;;4.99;44.82;102799.53;5042685;28;20117;-65
2022/03/21 07:05:45;;;;;;;22.58;10.63;;;;;;;5.01;44.76;102802.19;5024651;28;20029;-66
2022/03/21 07:08:11;;;;;;;18.33;7.35;;;;;;;5.21;44.52;102805.81;5024641;28;20077;-67
2022/03/21 07:10:40;;;;;;;17.55;7.03;;;;;;;5.35;43.85;102798.84;5042893;28;20025;-65
2022/03/21 07:13:06;;;;;;;10.93;6.50;;;;;;;5.39;43.89;102805.00;5042604;28;20024;-66
2022/03/21 07:15:32;;;;;;;16.10;8.27;;;;;;;5.39;43.93;102818.78;5042711;28;20032;-64
2022/03/21 07:17:58;;;;;;;12.65;5.53;;;;;;;5.52;43.50;102824.56;5042477;28;20108;-64
2022/03/21 07:20:25;;;;;;;18.38;8.85;;;;;;;5.48;43.61;102796.88;5042785;28;20025;-67
2022/03/21 07:22:52;;;;;;;12.85;6.53;;;;;;;5.83;42.19;102792.63;5024867;28;20045;-67
2022/03/21 07:25:18;;;;;;;21.58;12.23;;;;;;;5.62;43.51;102823.34;5042718;28;20017;-65
2022/03/21 07:27:45;;;;;;;12.75;7.40;;;;;;;5.99;42.82;102814.03;5042622;28;20018;-65
2022/03/21 07:30:12;;;;;;;11.35;6.93;;;;;;;6.17;42.72;102812.38;5042258;28;20072;-65
2022/03/21 07:32:38;;;;;;;10.93;7.10;;;;;;;6.43;42.06;102812.75;5042560;28;20071;-64
2022/03/21 07:35:04;;;;;;;14.95;7.57;;;;;;;6.68;40.94;102821.66;5042811;28;20417;-67
2022/03/21 07:37:41;;;;;;;13.55;7.00;;;;;;;6.73;40.99;102815.81;5042303;28;20617;-66
2022/03/21 07:40:10;;;;;;;15.07;8.25;;;;;;;6.74;41.36;102807.25;5042344;28;20051;-66
2022/03/21 07:42:37;;;;;;;22.33;12.07;;;;;;;6.81;40.76;102805.03;5045910;28;20363;-66
2022/03/21 07:47:47;;;;;;;15.48;6.82;;;;;;;7.37;39.28;102808.31;5046300;28;20024;-65
2022/03/21 07:50:12;;;;;;;16.00;9.80;;;;;;;7.26;39.87;102802.69;5046048;28;20127;-65
2022/03/21 07:52:37;;;;;;;14.13;7.93;;;;;;;7.42;40.11;102805.13;5046160;28;20121;-66
2022/03/21 07:55:03;;;;;;;13.02;6.35;;;;;;;7.71;38.71;102798.53;5046141;28;20037;-67
2022/03/21 07:57:29;;;;;;;17.92;9.68;;;;;;;7.53;39.30;102804.69;5045896;28;20049;-65
2022/03/21 07:59:54;;;;;;;19.00;10.98;;;;;;;7.56;39.30;102807.41;5045799;28;20067;-66
2022/03/21 08:02:21;;;;;;;21.38;10.85;;;;;;;7.77;40.00;102806.56;5045868;28;20036;-65
2022/03/21 08:04:50;;;;;;;13.38;7.63;;;;;;;8.27;37.74;102795.66;5045736;28;20021;-64
2022/03/21 08:07:16;;;;;;;16.23;8.48;;;;;;;8.13;37.54;102797.69;5045795;28;20438;-65
2022/03/21 08:09:42;;;;;;;18.38;9.93;;;;;;;8.18;37.07;102802.22;5045813;28;20417;-65
2022/03/21 08:12:08;;;;;;;20.23;11.68;;;;;;;8.02;37.37;102794.66;5045883;28;20014;-64
2022/03/21 08:14:33;;;;;;;11.88;7.85;;;;;;;8.23;36.84;102789.44;5045423;28;20026;-66
2022/03/21 08:16:59;;;;;;;20.02;10.20;;;;;;;7.90;37.60;102806.28;5045410;28;20117;-65
2022/03/21 08:19:25;;;;;;;23.83;12.43;;;;;;;7.98;37.84;102801.41;5045471;28;20029;-64
2022/03/21 08:21:52;;;;;;;23.27;11.95;;;;;;;8.08;37.20;102784.56;5045473;28;20041;-64
2022/03/21 08:24:18;;;;;;;15.32;8.32;;;;;;;8.39;36.76;102798.72;5045453;28;20053;-64
2022/03/21 08:26:44;;;;;;;17.80;12.65;;;;;;;8.30;36.88;102791.47;5045190;28;20021;-65
2022/03/21 08:29:10;;;;;;;22.85;12.50;;;;;;;8.32;37.02;102791.53;5045049;28;20024;-64
2022/03/21 08:31:35;;;;;;;17.63;10.65;;;;;;;8.57;36.40;102789.03;5045282;28;20021;-66
2022/03/21 08:34:02;;;;;;;19.75;12.32;;;;;;;8.60;36.51;102790.06;5045295;28;20086;-64
2022/03/21 08:36:27;;;;;;;20.17;11.85;;;;;;;8.80;36.27;102801.16;5045244;28;20371;-65
2022/03/21 08:38:52;;;;;;;17.05;11.10;;;;;;;9.05;35.28;102798.59;5044943;28;20103;-65
2022/03/21 08:41:21;;;;;;;12.50;7.85;;;;;;;9.09;35.50;102782.31;5045147;28;20044;-65
2022/03/21 08:43:47;;;;;;;18.80;9.27;;;;;;;9.22;35.50;102790.56;5044929;28;20032;-65
2022/03/21 08:46:12;;;;;;;18.70;12.32;;;;;;;9.27;36.22;102792.50;5045026;28;20029;-66
2022/03/21 08:51:26;;;;;;;19.75;10.55;;;;;;;10.45;34.06;102785.91;5002428;28;20125;-65
2022/03/21 08:53:51;;;;;;;20.13;12.48;;;;;;;10.51;34.46;102784.41;5002834;28;20093;-66
2022/03/21 08:56:17;;;;;;;19.45;11.57;;;;;;;10.86;34.43;102781.06;5002633;28;20522;-64
2022/03/21 08:58:43;;;;;;;23.35;12.88;;;;;;;11.14;32.97;102787.06;5002261;28;20031;-65
2022/03/21 09:01:08;;;;;;;23.42;12.20;;;;;;;11.45;32.75;102781.81;5002653;28;20026;-66
2022/03/21 09:03:34;;;;;;;19.27;12.18;;;;;;;11.80;31.85;102780.94;5002669;28;20566;-66
2022/03/21 09:05:59;;;;;;;21.90;12.15;;;;;;;12.10;31.68;102766.94;5002693;28;20041;-65
2022/03/21 09:08:24;;;;;;;18.02;12.15;;;;;;;12.36;30.70;102768.38;5002483;28;20387;-66
2022/03/21 09:10:50;;;;;;;17.50;11.60;;;;;;;12.33;29.88;102770.91;4986047;28;20034;-64
2022/03/21 09:13:15;;;;;;;19.17;9.05;;;;;;;12.25;29.50;102776.81;5002243;28;20088;-65
2022/03/21 09:15:44;;;;;;;15.63;8.90;;;;;;;12.27;29.10;102769.03;5002377;28;20120;-65
2022/03/21 09:18:10;;;;;;;20.15;12.68;;;;;;;12.11;28.93;102784.31;5002285;28;20026;-65
2022/03/21 09:20:36;;;;;;;17.17;6.82;;;;;;;12.34;28.20;102781.38;5002252;28;20057;-67
2022/03/21 09:23:01;;;;;;;18.02;11.27;;;;;;;12.06;28.40;102772.88;5002055;28;20034;-65
2022/03/21 09:25:26;;;;;;;13.10;9.48;;;;;;;11.93;29.07;102778.66;5002157;28;20170;-65
2022/03/21 09:27:52;;;;;;;17.23;10.32;;;;;;;12.09;28.74;102766.91;5013009;28;20041;-65
2022/03/21 09:30:17;;;;;;;18.17;11.77;;;;;;;12.24;29.12;102769.84;5044012;28;20112;-65
2022/03/21 09:32:43;;;;;;;15.38;9.88;;;;;;;12.76;28.61;102766.59;5044018;28;20045;-65
2022/03/21 09:35:08;;;;;;;17.30;8.60;;;;;;;13.38;26.28;102764.31;5043881;28;20050;-65
2022/03/21 09:37:35;;;;;;;16.17;9.20;;;;;;;13.03;26.46;102774.97;5043891;28;20028;-65
2022/03/21 09:40:00;;;;;;;20.00;11.55;;;;;;;13.05;26.46;102773.25;5043792;28;20128;-65
2022/03/21 09:42:26;;;;;;;20.23;10.52;;;;;;;12.81;25.83;102771.06;5043607;28;20397;-65
2022/03/21 09:44:55;;;;;;;21.67;10.70;;;;;;;12.34;26.15;102775.28;5025616;28;20032;-66
2022/03/21 09:50:11;;;;;;;20.70;12.48;;;;;;;11.97;27.07;102757.94;5043996;28;20040;-65
2022/03/21 09:52:38;;;;;;;22.45;12.88;;;;;;;12.33;26.76;102779.59;5043736;28;20044;-65
2022/03/21 09:55:05;;;;;;;17.13;11.60;;;;;;;12.50;26.19;102776.50;5043900;28;20052;-65
2022/03/21 09:57:31;;;;;;;22.00;13.40;;;;;;;12.11;27.30;102773.91;5043681;28;20052;-65
2022/03/21 09:59:59;;;;;;;17.98;11.57;;;;;;;12.07;27.55;102769.44;5043392;28;20436;-65
2022/03/21 10:02:26;;;;;;;23.23;14.52;;;;;;;11.81;27.73;102774.91;5043615;28;20052;-65
2022/03/21 10:04:52;;;;;;;23.45;13.48;;;;;;;12.00;27.80;102785.75;5042871;28;20018;-65
2022/03/21 10:07:25;;;;;;;23.83;11.57;;;;;;;12.66;26.69;102772.50;5043709;28;20032;-65
2022/03/21 10:10:16;;;;;;;15.55;9.57;;;;;;;12.91;26.37;102767.75;5043363;28;20067;-65
2022/03/21 10:12:42;;;;;;;13.02;8.32;;;;;;;13.27;25.81;102776.28;5043511;28;20022;-65
2022/03/21 10:15:09;;;;;;;14.07;7.85;;;;;;;13.24;25.42;102764.03;5043231;28;20017;-65
2022/03/21 10:17:35;;;;;;;26.20;12.75;;;;;;;13.02;26.22;102765.38;5043358;28;20105;-65
2022/03/21 10:20:01;;;;;;;20.92;12.07;;;;;;;13.17;26.00;102766.50;5043497;28;20040;-65
2022/03/21 10:22:32;;;;;;;20.48;12.77;;;;;;;13.06;25.69;102766.31;5043310;28;20048;-65
2022/03/21 10:25:08;;;;;;;19.70;11.13;;;;;;;12.83;26.17;102764.13;5043259;28;20022;-66
2022/03/21 10:27:41;;;;;;;17.92;10.05;;;;;;;12.49;26.21;102756.50;5043199;28;20311;-65
2022/03/21 10:30:08;;;;;;;13.10;8.45;;;;;;;13.05;25.48;102751.53;5042976;28;20021;-65
2022/03/21 10:32:42;;;;;;;18.00;10.52;;;;;;;13.47;25.27;102757.47;5043395;28;20144;-65
2022/03/21 10:35:18;;;;;;;16.00;10.82;;;;;;;13.87;24.33;102750.34;5043469;28;20089;-65
2022/03/21 10:37:44;;;;;;;17.95;10.63;;;;;;;14.21;23.94;102754.31;5043089;28;20025;-66
2022/03/21 10:40:34;;;;;;;22.13;9.52;;;;;;;14.86;22.88;102744.69;5042854;28;20132;-65
2022/03/21 10:43:03;;;;;;;17.52;10.23;;;;;;;15.05;21.92;102746.66;5042953;28;20079;-65
2022/03/21 10:45:35;;;;;;;13.52;8.80;;;;;;;15.10;22.22;102739.69;5043197;28;20045;-66
2022/03/21 10:48:04;;;;;;;18.00;11.73;;;;;;;15.14;22.44;102719.69;5043173;28;20033;-64
2022/03/21 10:50:57;;;;;;;18.70;8.95;;;;;;;15.55;21.38;102734.00;5042784;28;20033;-64
2022/03/21 10:53:23;;;;;;;18.17;11.65;;;;;;;15.04;22.67;102730.06;5039602;28;20096;-65
2022/03/21 10:55:58;;;;;;;13.38;9.35;;;;;;;15.46;21.20;102737.44;5043266;28;20025;-65
2022/03/21 10:58:45;;;;;;;13.93;9.30;;;;;;;15.21;21.60;102724.09;5024854;28;20385;-65
2022/03/21 11:01:18;;;;;;;17.23;8.57;;;;;;;15.14;21.33;102725.81;5042917;28;20511;-65
2022/03/21 11:03:49;;;;;;;12.05;6.03;;;;;;;15.13;20.37;102738.88;5042928;28;20030;-65
2022/03/21 11:06:14;;;;;;;14.40;7.93;;;;;;;14.73;21.23;102735.81;5042999;28;20064;-65
2022/03/21 11:08:40;;;;;;;14.55;8.23;;;;;;;14.45;21.67;102724.13;5042590;28;20018;-65
2022/03/21 11:11:08;;;;;;;16.02;7.88;;;;;;;14.27;21.85;102714.31;5042811;28;20025;-65
2022/03/21 11:13:35;;;;;;;16.23;10.38;;;;;;;14.29;22.66;102729.19;5042460;28;20053;-65
2022/03/21 11:16:01;;;;;;;9.80;6.53;;;;;;;15.10;21.22;102726.63;5045560;28;20029;-66
2022/03/21 11:18:27;;;;;;;20.27;9.70;;;;;;;14.92;20.24;102725.56;5046506;28;20024;-66
2022/03/21 11:20:54;;;;;;;10.60;6.45;;;;;;;14.84;18.81;102733.34;5046703;28;20018;-66
2022/03/21 11:23:19;;;;;;;12.50;7.28;;;;;;;14.59;19.52;102726.91;5046825;28;20040;-66
2022/03/21 11:25:50;;;;;;;8.68;5.50;;;;;;;15.00;18.38;102728.25;5046574;28;20057;-71
2022/03/21 11:28:27;;;;;;;14.98;6.95;;;;;;;15.06;18.01;102730.97;5028483;28;20444;-66
2022/03/21 11:31:20;;;;;;;7.65;5.22;;;;;;;15.26;17.61;102722.41;5046566;28;20024;-67
2022/03/21 11:34:10;;;;;;;13.95;7.60;;;;;;;15.44;17.64;102720.81;5046483;28;20028;-66
2022/03/21 11:36:49;;;;;;;13.82;7.88;;;;;;;15.31;17.95;102718.13;5046401;28;20025;-66
2022/03/21 11:39:15;;;;;;;14.13;7.97;;;;;;;15.91;17.34;102708.06;5045992;28;20072;-66
2022/03/21 11:41:57;;;;;;;13.27;7.93;;;;;;;16.35;17.34;102717.06;5046414;28;20033;-65
2022/03/21 11:44:23;;;;;;;12.48;7.88;;;;;;;16.79;17.11;102709.34;5046044;28;20056;-66
2022/03/21 11:46:49;;;;;;;18.15;8.60;;;;;;;16.66;17.06;102709.28;5046154;28;20100;-66